createdAt,value
2019-06-10T00:08:26.667Z,68.00
2019-06-10T00:13:42.526Z,68.10
2019-06-10T00:18:58.172Z,68.20
2019-06-10T00:24:14.187Z,68.20
2019-06-10T00:29:31.246Z,68.30
2019-06-10T00:34:47.047Z,68.60
2019-06-10T00:40:05.525Z,68.50
2019-06-10T00:45:21.673Z,68.70
2019-06-10T00:50:41.461Z,68.80
2019-06-10T00:55:58.935Z,69.00
2019-06-10T01:01:14.834Z,69.00
2019-06-10T01:06:31.788Z,69.20
2019-06-10T01:11:47.888Z,69.30
2019-06-10T01:17:03.626Z,69.50
2019-06-10T01:22:21.333Z,69.70
2019-06-10T01:27:40.873Z,69.70
2019-06-10T01:32:56.831Z,69.80
2019-06-10T01:38:13.929Z,70.00
2019-06-10T01:43:32.050Z,70.20
2019-06-10T01:48:48.459Z,70.30
2019-06-10T01:54:04.775Z,70.50
2019-06-10T01:59:21.966Z,70.60
2019-06-10T02:04:41.166Z,70.80
2019-06-10T02:09:56.213Z,71.70
2019-06-10T02:15:15.238Z,71.10
2019-06-10T02:20:31.773Z,71.30
2019-06-10T02:25:47.710Z,71.40
2019-06-10T02:31:04.008Z,71.60
2019-06-10T02:36:28.076Z,71.80
2019-06-10T02:42:21.163Z,71.80
2019-06-10T02:48:04.130Z,72.00
2019-06-10T02:53:45.504Z,71.90
2019-06-10T02:59:13.687Z,72.10
2019-06-10T03:04:57.848Z,72.40
2019-06-10T03:11:27.344Z,72.30
2019-06-10T03:31:43.281Z,72.90
2019-06-10T03:38:07.160Z,73.20
2019-06-10T03:50:32.375Z,73.70
2019-06-10T03:55:47.958Z,74.00
2019-06-10T04:01:03.623Z,74.30
2019-06-10T04:06:19.610Z,74.60
2019-06-10T04:11:35.767Z,74.80
2019-06-10T04:16:52.494Z,75.00
2019-06-10T04:22:08.318Z,75.30
2019-06-10T04:27:25.306Z,75.50
2019-06-10T04:32:42.928Z,75.70
2019-06-10T04:37:58.910Z,75.90
2019-06-10T04:43:14.508Z,76.10
2019-06-10T04:48:32.809Z,76.40
2019-06-10T04:53:48.600Z,76.70
2019-06-10T04:59:04.246Z,76.90
2019-06-10T05:04:20.949Z,77.10
2019-06-10T05:09:37.443Z,77.50
2019-06-10T05:14:53.223Z,77.80
2019-06-10T05:20:09.462Z,78.20
2019-06-10T05:25:25.729Z,78.40
2019-06-10T05:30:42.754Z,78.80
2019-06-10T05:35:58.554Z,79.10
2019-06-10T05:41:14.013Z,79.30
2019-06-10T05:46:30.291Z,79.80
2019-06-10T05:51:45.938Z,80.50
2019-06-10T05:57:02.644Z,80.60
2019-06-10T06:02:18.242Z,81.00
2019-06-10T06:07:37.577Z,81.30
2019-06-10T06:14:19.503Z,81.60
2019-06-10T06:20:23.488Z,82.00
2019-06-10T06:26:19.447Z,82.60
2019-06-10T06:32:09.908Z,83.30
2019-06-10T06:37:54.080Z,83.90
2019-06-10T06:43:45.258Z,84.40
2019-06-10T06:49:39.061Z,85.00
2019-06-10T06:55:14.819Z,85.60
2019-06-10T07:01:14.943Z,86.40
2019-06-10T07:13:39.122Z,87.50
2019-06-10T07:18:54.271Z,88.40
2019-06-10T07:24:12.499Z,89.00
2019-06-10T07:29:27.587Z,89.40
2019-06-10T07:34:46.807Z,90.20
2019-06-10T07:40:03.038Z,90.30
2019-06-10T07:45:22.023Z,90.50
2019-06-10T07:50:37.808Z,90.80
2019-06-10T07:55:53.810Z,90.90
2019-06-10T08:01:09.901Z,91.10
2019-06-10T08:06:34.819Z,91.40
2019-06-10T08:12:18.909Z,91.70
2019-06-10T08:17:35.719Z,91.90
2019-06-10T08:22:57.115Z,92.10
2019-06-10T08:28:09.429Z,92.20
2019-06-10T08:33:25.280Z,92.40
2019-06-10T08:38:45.007Z,92.70
2019-06-10T08:43:58.442Z,93.30
2019-06-10T08:49:14.747Z,93.70
2019-06-10T08:54:32.373Z,93.90
2019-06-10T08:59:49.272Z,94.20
2019-06-10T09:05:06.356Z,94.50
2019-06-10T09:10:22.724Z,94.70
2019-06-10T09:15:39.216Z,94.20
2019-06-10T09:20:56.144Z,93.90
2019-06-10T09:26:12.716Z,93.70
2019-06-10T09:31:28.836Z,93.60
2019-06-10T09:36:49.102Z,93.60
2019-06-10T09:42:06.128Z,93.40
2019-06-10T09:47:22.526Z,93.80
2019-06-10T09:52:38.513Z,93.40
2019-06-10T09:57:59.737Z,93.20
2019-06-10T10:03:12.307Z,93.40
2019-06-10T10:08:27.979Z,93.50
2019-06-10T10:13:46.156Z,93.40
2019-06-10T10:19:05.164Z,93.40
2019-06-10T10:24:18.318Z,93.60
2019-06-10T10:29:33.870Z,93.80
2019-06-10T10:34:50.229Z,93.90
2019-06-10T10:40:08.044Z,94.20
2019-06-10T10:45:24.005Z,93.90
2019-06-10T10:50:39.756Z,94.10
2019-06-10T10:55:55.390Z,96.20
2019-06-10T11:01:14.610Z,97.20
2019-06-10T11:06:28.591Z,96.30
2019-06-10T11:11:45.811Z,95.90
2019-06-10T11:17:02.857Z,95.30
2019-06-10T11:22:18.926Z,94.50
2019-06-10T11:27:34.529Z,93.10
2019-06-10T11:32:53.542Z,92.80
2019-06-10T11:38:08.563Z,92.50
2019-06-10T11:43:24.279Z,92.80
2019-06-10T11:48:43.568Z,92.30
2019-06-10T11:54:00.238Z,92.20
2019-06-10T11:59:16.118Z,92.90
2019-06-10T12:04:56.368Z,92.60
2019-06-10T12:10:16.944Z,93.30
2019-06-10T12:16:20.864Z,93.90
2019-06-10T12:21:23.601Z,94.50
2019-06-10T12:26:45.407Z,94.80
2019-06-10T12:32:07.146Z,94.80
2019-06-10T12:37:25.495Z,94.70
2019-06-10T12:42:59.497Z,94.50
2019-06-10T12:48:14.992Z,94.20
2019-06-10T12:54:55.592Z,93.80
2019-06-10T13:00:26.210Z,93.50
2019-06-10T13:05:48.581Z,93.00
2019-06-10T13:11:08.304Z,92.80
2019-06-10T13:16:23.899Z,92.70
2019-06-10T13:21:39.833Z,92.40
2019-06-10T13:26:56.539Z,92.30
2019-06-10T13:32:12.355Z,92.10
2019-06-10T13:37:28.150Z,91.90
2019-06-10T13:42:43.815Z,91.80
2019-06-10T13:48:01.080Z,91.70
2019-06-10T13:53:16.601Z,91.60
2019-06-10T13:58:32.853Z,91.60
2019-06-10T14:03:49.271Z,91.30
2019-06-10T14:09:25.230Z,91.20
2019-06-10T14:14:53.160Z,91.20
2019-06-10T14:20:13.595Z,91.20
2019-06-10T14:25:33.982Z,91.20
2019-06-10T14:30:50.093Z,91.10
2019-06-10T14:42:24.886Z,91.20
2019-06-10T14:48:02.857Z,91.20
2019-06-10T14:53:23.087Z,91.30
2019-06-10T14:58:38.626Z,91.40
2019-06-10T15:03:55.129Z,91.40
2019-06-10T15:09:11.504Z,91.50
2019-06-10T15:14:29.199Z,91.60
2019-06-10T15:19:45.141Z,91.70
2019-06-10T15:25:03.275Z,91.80
2019-06-10T15:30:25.807Z,91.80
2019-06-10T15:35:35.648Z,92.00
2019-06-10T15:40:53.302Z,92.00
2019-06-10T15:46:09.880Z,92.10
2019-06-10T15:51:26.314Z,92.30
2019-06-10T15:56:49.901Z,92.30
2019-06-10T16:01:59.517Z,92.30
2019-06-10T16:07:20.369Z,92.40
2019-06-10T16:12:43.624Z,92.50
2019-06-10T16:18:02.889Z,92.50
2019-06-10T16:23:26.787Z,92.60
2019-06-10T16:28:44.384Z,92.70
2019-06-10T16:34:04.388Z,92.80
2019-06-10T16:39:21.718Z,92.90
2019-06-10T16:44:42.207Z,93.00
2019-06-10T16:50:23.797Z,93.00
2019-06-10T16:55:47.258Z,93.10
2019-06-10T17:01:04.101Z,93.10
2019-06-10T17:06:22.460Z,93.20
2019-06-10T17:11:42.595Z,93.30
2019-06-10T17:23:28.001Z,93.50
2019-06-10T17:28:52.285Z,93.60
2019-06-10T17:34:08.564Z,93.70
2019-06-10T17:39:27.019Z,93.70
2019-06-10T17:45:02.538Z,93.80
2019-06-10T17:50:19.392Z,93.90
2019-06-10T18:01:05.139Z,94.00
2019-06-10T18:06:22.890Z,94.20
2019-06-10T18:11:38.289Z,94.30
2019-06-10T18:16:54.605Z,94.40
2019-06-10T18:22:12.542Z,94.40
2019-06-10T18:27:33.685Z,94.60
2019-06-10T18:32:49.461Z,94.70
2019-06-10T18:38:05.659Z,94.70
2019-06-10T18:43:23.000Z,97.00
2019-06-10T18:48:39.976Z,97.80
2019-06-10T18:53:55.774Z,98.90
2019-06-10T18:59:20.485Z,99.90
2019-06-10T19:04:35.023Z,99.90
2019-06-10T19:09:49.434Z,99.90
2019-06-10T19:15:15.905Z,99.90
2019-06-10T19:20:38.317Z,99.90
2019-06-10T19:26:02.928Z,99.90
2019-06-10T19:31:18.373Z,99.90
2019-06-10T19:36:34.108Z,99.90
2019-06-10T19:41:49.789Z,99.90
2019-06-10T19:47:05.270Z,99.90
2019-06-10T19:52:23.331Z,99.90
2019-06-10T19:57:39.473Z,99.90
2019-06-10T20:02:57.043Z,99.90
2019-06-10T20:08:13.101Z,99.70
2019-06-10T20:13:28.802Z,99.50
2019-06-10T20:18:47.869Z,99.40
2019-06-10T20:24:03.078Z,99.30
2019-06-10T20:29:19.329Z,99.20
2019-06-10T20:34:35.259Z,99.10
2019-06-10T20:39:53.657Z,99.00
2019-06-10T20:45:08.582Z,99.00
2019-06-10T20:50:24.433Z,98.90
2019-06-10T20:55:47.332Z,99.00
2019-06-10T21:01:05.565Z,99.10
2019-06-10T21:06:24.998Z,99.00
2019-06-10T21:11:45.126Z,99.10
2019-06-10T21:16:58.436Z,99.10
2019-06-10T21:22:15.353Z,99.10
2019-06-10T21:27:34.425Z,99.10
2019-06-10T21:32:53.190Z,99.10
2019-06-10T21:38:07.637Z,99.00
2019-06-10T21:43:24.154Z,99.10
2019-06-10T21:48:39.928Z,99.10
2019-06-10T21:53:55.482Z,99.10
2019-06-10T21:59:14.456Z,99.10
2019-06-10T22:04:32.509Z,99.10
2019-06-10T22:09:47.801Z,99.30
2019-06-10T22:15:03.514Z,99.30
2019-06-10T22:20:22.660Z,99.30
2019-06-10T22:25:38.012Z,99.40
2019-06-10T22:31:11.385Z,99.40
2019-06-10T22:36:12.923Z,99.40
2019-06-10T22:41:30.277Z,99.40
2019-06-10T22:46:47.517Z,99.50
2019-06-10T22:52:07.233Z,99.60
2019-06-10T22:57:59.068Z,99.50
2019-06-10T23:03:13.727Z,99.50
2019-06-10T23:08:29.700Z,99.60
2019-06-10T23:13:45.661Z,99.60
2019-06-10T23:19:02.936Z,99.70
2019-06-10T23:24:18.594Z,99.70
2019-06-10T23:29:34.027Z,99.80
2019-06-10T23:34:49.492Z,99.80
2019-06-10T23:40:05.110Z,99.90
2019-06-10T23:45:22.370Z,99.90
2019-06-10T23:50:38.096Z,99.90
2019-06-10T23:55:54.684Z,99.90
